Galax, VA

1:37 AM EST on February 28, 2015 (GMT -0500)
Twin County | Change Station
CLOSE
Current Station
Airport
Location: Galax,
Elevation: 2690 ft
Nearby Weather Stations
Active Advisory: Special Statement

Elev 2690 ft 36.77 °N, 80.82 °W | Updated 22 minutes ago

Clear
Clear
14 °F
Feels Like 9 °F
N
4
Wind Variable Wind from NE

Today
High -- | Low -- °F
--% Chance of Precip.
Yesterday
High -- | Low -- °F
Precip. -- in
6:56 AM 6:16 PM
Waxing Gibbous, 75% visible
Pressure 30.46 in
Visibility 10.0 miles
Clouds Clear
Windchill 9 °F
Dew Point 8 °F
Humidity 74%
Rainfall 0.00 in
Snow Depth Not available.
UV 0 out of 12
Pollen 4.90 out of 12
Air Quality Not available.
Flu Activity Not available.
METAR KHLX 280615Z AUTO 05003KT 10SM CLR M10/M13 A3046 RMK AO2 T10971135

More Conditions Fewer Conditions

Pressure 30.46 in
Visibility 10.0 miles
Clouds Clear
Windchill 9 °F
Dew Point 8 °F
Humidity 74%
Rainfall 0.00 in
Snow Depth Not available.
UV 0 out of 12
Pollen 4.90 out of 12
Air Quality Not available.
Flu Activity Not available.
METAR KHLX 280615Z AUTO 05003KT 10SM CLR M10/M13 A3046 RMK AO2 T10971135

More Conditions Fewer Conditions

10-Day Weather Forecast

Almanac

Astronomy

Feb. 28, 2015 Rise Set
Actual Time
Civil Twilight
Nautical Twilight
Astronomical Twilight
Moon
Length of Visible Light
Length of Day
Tomorrow will be .
, % of the Moon is Illuminated

Today's Extremes

State Highs State Lows

Community

WunderPhotos

Upload Photos

1,800,974 photos uploaded!

WunderBlogs® & News

Nearby

Air Quality

  Air Quality AQ Index Pollutant
Not available.

Snow Depth

Station Depth Elevation

Earthquake Activity

City Distance Mag. Time & Date
Minimum magnitude displayed is 2.5.

Coastal Water Temperatures

Place Temperature

Nearby Weather Stations

Special Statement
Statement as of 11:32 PM EST on February 27, 2015

... Isolated black ice formation possible overnight...

Limited amounts of snow melted Friday thanks to below freezing
temperatures and limited sunshine. However... where any surface
moisture formed... it may have re-froze... causing slippery spots
on roads... sidewalks and parking lots.



1132 PM EST Fri Feb 27 2015

... Isolated black ice formation possible overnight...

Limited amounts of snow melted Friday thanks to below freezing
temperatures and limited sunshine. However... where any surface
moisture formed... it may have re-froze... causing slippery spots
on roads... sidewalks and parking lots.